Time;durP1;ratioP1;P1;durP2;ratioP2;P2;SDS_P1;SDS_P2;PMS_P1;PMS_P2;Temp;Humidity;BMP_temperature;BMP_pressure;BME280_temperature;BME280_humidity;BME280_pressure;Samples;Min_cycle;Max_cycle;Signal;HPM_P1;HPM_P2
2023/01/26 00:00:48;;;;;;;1.73;0.60;;;17.70;65.70;;;;;;6213105;23;20007;-75
2023/01/26 00:03:14;;;;;;;0.70;0.70;;;17.60;65.70;;;;;;6213087;23;20082;-76
2023/01/26 00:05:40;;;;;;;0.60;0.60;;;17.60;65.80;;;;;;6213258;23;19996;-76
2023/01/26 00:08:05;;;;;;;0.43;0.43;;;17.50;65.90;;;;;;6188306;23;20031;-76
2023/01/26 00:10:31;;;;;;;1.27;0.63;;;17.50;65.90;;;;;;6214655;23;20051;-75
2023/01/26 00:12:57;;;;;;;0.82;0.60;;;17.50;66.00;;;;;;6213482;23;20008;-76
2023/01/26 00:15:22;;;;;;;0.52;0.52;;;17.50;66.00;;;;;;6187593;23;20440;-75
2023/01/26 00:17:51;;;;;;;0.60;0.60;;;17.40;66.20;;;;;;6214590;23;20004;-75
2023/01/26 00:20:16;;;;;;;0.50;0.50;;;17.40;66.30;;;;;;6214627;23;20008;-76
2023/01/26 00:22:42;;;;;;;0.85;0.57;;;17.30;66.20;;;;;;6188290;23;19997;-75
2023/01/26 00:25:08;;;;;;;0.60;0.60;;;17.30;66.40;;;;;;6213012;23;20012;-75
2023/01/26 00:27:34;;;;;;;0.40;0.40;;;17.30;66.50;;;;;;6214539;23;20440;-76
2023/01/26 00:30:00;;;;;;;0.50;0.50;;;17.20;66.50;;;;;;6214236;23;20005;-75
2023/01/26 00:32:25;;;;;;;0.60;0.60;;;17.20;66.60;;;;;;6187955;23;20005;-75
2023/01/26 00:34:51;;;;;;;0.60;0.60;;;17.20;66.60;;;;;;6214438;23;20005;-76
2023/01/26 00:37:16;;;;;;;0.50;0.43;;;17.10;66.80;;;;;;6214309;23;20016;-76
2023/01/26 00:39:42;;;;;;;0.60;0.60;;;17.20;66.90;;;;;;6212873;23;20337;-76
2023/01/26 00:42:12;;;;;;;0.50;0.50;;;17.10;67.00;;;;;;6214477;23;20024;-76
2023/01/26 00:44:39;;;;;;;1.27;0.50;;;17.10;67.00;;;;;;6214224;23;20063;-75
2023/01/26 00:47:05;;;;;;;0.50;0.50;;;17.00;67.00;;;;;;6212962;23;19997;-75
2023/01/26 00:49:31;;;;;;;0.50;0.50;;;17.00;67.20;;;;;;6212908;23;20000;-75
2023/01/26 00:51:57;;;;;;;0.38;0.38;;;17.00;67.00;;;;;;6212993;23;20058;-75
2023/01/26 00:54:22;;;;;;;0.50;0.50;;;16.90;67.00;;;;;;6187885;23;20071;-75
2023/01/26 00:56:48;;;;;;;0.57;0.57;;;16.90;67.20;;;;;;6214438;23;20008;-76
2023/01/26 00:59:14;;;;;;;0.45;0.45;;;16.90;67.30;;;;;;6212516;23;20055;-75
2023/01/26 01:01:39;;;;;;;0.50;0.50;;;16.90;67.50;;;;;;6213013;23;20051;-75
2023/01/26 01:04:05;;;;;;;0.52;0.52;;;16.80;67.50;;;;;;6212857;23;20001;-76
2023/01/26 01:06:30;;;;;;;0.50;0.50;;;16.80;67.70;;;;;;6214222;23;20001;-75
2023/01/26 01:08:56;;;;;;;1.67;0.50;;;16.80;67.60;;;;;;6213005;23;20420;-76
2023/01/26 01:11:22;;;;;;;0.50;0.50;;;16.80;67.90;;;;;;6214076;23;20005;-76
2023/01/26 01:13:47;;;;;;;0.60;0.60;;;16.70;67.90;;;;;;6212663;23;20005;-76
2023/01/26 01:16:14;;;;;;;0.55;0.50;;;16.70;67.90;;;;;;6214127;23;20001;-75
2023/01/26 01:18:39;;;;;;;0.35;0.35;;;16.70;68.00;;;;;;6212682;23;19996;-76
2023/01/26 01:21:13;;;;;;;0.30;0.30;;;16.70;68.10;;;;;;6187699;23;20087;-75
2023/01/26 01:23:39;;;;;;;0.70;0.70;;;16.60;68.10;;;;;;6214349;23;20032;-75
2023/01/26 01:26:05;;;;;;;0.93;0.40;;;16.60;68.20;;;;;;6213993;23;20020;-76
2023/01/26 01:28:31;;;;;;;0.40;0.40;;;16.60;68.30;;;;;;6187526;23;20144;-75
2023/01/26 01:30:57;;;;;;;0.52;0.52;;;16.60;68.30;;;;;;6214196;23;20353;-76
2023/01/26 01:33:23;;;;;;;0.55;0.50;;;16.60;68.30;;;;;;6187678;23;20001;-76
2023/01/26 01:35:56;;;;;;;0.57;0.57;;;16.50;68.40;;;;;;6187817;23;20051;-76
2023/01/26 01:38:22;;;;;;;0.50;0.40;;;16.50;68.50;;;;;;6214111;23;20051;-75
2023/01/26 01:40:47;;;;;;;0.57;0.57;;;16.50;68.60;;;;;;6213029;23;20008;-75
2023/01/26 01:43:13;;;;;;;0.50;0.50;;;16.50;68.80;;;;;;6212468;23;20001;-76
2023/01/26 01:45:46;;;;;;;0.50;0.50;;;16.50;68.90;;;;;;6213088;23;20000;-75
2023/01/26 01:48:34;;;;;;;0.52;0.52;;;16.50;68.90;;;;;;6214669;23;20075;-76
2023/01/26 01:51:03;;;;;;;1.65;0.55;;;16.40;69.00;;;;;;6197414;23;20007;-75
2023/01/26 01:53:34;;;;;;;0.35;0.35;;;16.40;68.90;;;;;;6214259;23;20008;-75
2023/01/26 01:56:02;;;;;;;0.52;0.52;;;16.30;69.00;;;;;;6189949;23;20026;-76
2023/01/26 01:58:28;;;;;;;0.40;0.40;;;16.30;69.00;;;;;;6214330;23;20010;-76
2023/01/26 02:00:54;;;;;;;2.72;0.40;;;16.30;69.10;;;;;;6189561;23;20032;-76
2023/01/26 02:03:20;;;;;;;0.50;0.50;;;16.30;69.30;;;;;;6188987;23;20001;-75
2023/01/26 02:05:51;;;;;;;0.40;0.40;;;16.30;69.20;;;;;;6214362;23;19996;-76
2023/01/26 02:08:18;;;;;;;0.57;0.50;;;16.30;69.30;;;;;;6215767;23;20001;-75
2023/01/26 02:10:45;;;;;;;0.40;0.40;;;16.20;69.30;;;;;;6189292;23;20007;-75
2023/01/26 02:13:11;;;;;;;0.73;0.68;;;16.20;69.30;;;;;;6189385;23;20005;-76
2023/01/26 02:15:37;;;;;;;0.35;0.35;;;16.20;69.30;;;;;;6189249;23;20361;-75
2023/01/26 02:18:03;;;;;;;0.50;0.50;;;16.20;69.50;;;;;;6189257;23;20058;-76
2023/01/26 02:20:44;;;;;;;0.40;0.40;;;16.20;69.50;;;;;;6189051;23;20005;-75
2023/01/26 02:23:25;;;;;;;0.40;0.40;;;16.10;69.50;;;;;;6214198;23;20046;-76
2023/01/26 02:25:54;;;;;;;1.00;0.43;;;16.10;69.80;;;;;;6215215;23;20017;-76
2023/01/26 02:28:25;;;;;;;0.30;0.30;;;16.10;69.70;;;;;;6215472;23;20004;-76
2023/01/26 02:30:50;;;;;;;0.68;0.47;;;16.10;69.80;;;;;;6189870;23;20028;-75
2023/01/26 02:33:20;;;;;;;0.45;0.45;;;16.10;69.90;;;;;;6188935;23;20441;-76
2023/01/26 02:35:46;;;;;;;0.40;0.40;;;16.10;69.90;;;;;;6189265;23;20050;-76
2023/01/26 02:38:11;;;;;;;0.63;0.50;;;16.00;69.90;;;;;;6215541;23;20004;-76
2023/01/26 02:40:42;;;;;;;0.30;0.30;;;16.00;70.00;;;;;;6188608;23;20063;-75
2023/01/26 02:43:08;;;;;;;1.25;0.52;;;16.00;70.10;;;;;;6215362;23;20392;-76
2023/01/26 02:45:34;;;;;;;0.47;0.40;;;16.00;70.00;;;;;;6215473;23;19997;-76
2023/01/26 02:48:03;;;;;;;0.20;0.20;;;16.00;70.20;;;;;;6188980;23;20460;-76
2023/01/26 02:50:29;;;;;;;0.30;0.30;;;16.00;70.30;;;;;;6215390;23;20004;-76
2023/01/26 02:52:55;;;;;;;0.75;0.50;;;16.00;70.20;;;;;;6214052;23;20008;-76
2023/01/26 02:55:21;;;;;;;0.43;0.43;;;15.90;70.20;;;;;;6214953;23;20121;-76
2023/01/26 02:57:47;;;;;;;1.00;0.70;;;15.90;70.30;;;;;;6188747;23;20027;-76
2023/01/26 03:00:40;;;;;;;0.43;0.43;;;15.90;70.30;;;;;;6189020;23;20005;-76
2023/01/26 03:03:14;;;;;;;0.35;0.35;;;15.90;70.50;;;;;;6213991;23;20001;-76
2023/01/26 03:05:40;;;;;;;1.30;0.40;;;15.90;70.60;;;;;;6215214;23;20001;-76
2023/01/26 03:08:06;;;;;;;0.40;0.40;;;15.90;70.60;;;;;;6188824;23;19996;-75
2023/01/26 03:10:32;;;;;;;0.40;0.40;;;15.80;70.50;;;;;;6213746;23;20001;-75
2023/01/26 03:12:58;;;;;;;0.32;0.32;;;15.80;70.60;;;;;;6215296;23;20075;-76
2023/01/26 03:29:25;;;;;;;0.90;0.40;;;15.70;71.00;;;;;;6123318;23;20074;-76
2023/01/26 03:31:51;;;;;;;0.30;0.30;;;15.70;71.00;;;;;;6122956;23;20010;-75
2023/01/26 03:34:17;;;;;;;0.45;0.40;;;15.70;71.00;;;;;;6123106;23;20073;-75
2023/01/26 03:36:42;;;;;;;1.25;0.50;;;15.70;71.00;;;;;;6122958;23;20029;-76
2023/01/26 03:39:08;;;;;;;0.80;0.30;;;15.70;71.10;;;;;;6122800;23;20016;-75
2023/01/26 03:58:00;;;;;;;0.30;0.30;;;15.60;71.30;;;;;;6213539;23;20059;-76
2023/01/26 04:00:25;;;;;;;0.50;0.40;;;15.60;71.50;;;;;;6214733;23;20004;-76
2023/01/26 04:08:22;;;;;;;1.10;0.47;;;15.50;71.50;;;;;;6214553;23;20349;-76
2023/01/26 04:10:51;;;;;;;0.35;0.35;;;15.50;71.70;;;;;;6213146;23;20373;-76
2023/01/26 04:21:34;;;;;;;0.77;0.40;;;15.40;71.60;;;;;;6213130;23;20011;-75
2023/01/26 04:24:00;;;;;;;0.30;0.30;;;15.40;71.70;;;;;;6214233;23;20008;-76
2023/01/26 04:26:33;;;;;;;0.30;0.30;;;15.40;71.70;;;;;;6213234;23;20035;-75
2023/01/26 04:29:17;;;;;;;;;;;15.40;71.80;;;;;;6213683;23;20071;-76
2023/01/26 04:31:43;;;;;;;0.90;0.40;;;15.40;71.90;;;;;;6212930;23;19961;-76
2023/01/26 04:34:13;;;;;;;0.50;0.40;;;15.40;72.00;;;;;;6213166;23;20481;-75
2023/01/26 04:36:38;;;;;;;0.50;0.50;;;15.40;72.00;;;;;;6187599;23;20008;-75
2023/01/26 04:39:04;;;;;;;2.25;0.45;;;15.30;71.80;;;;;;6188061;23;20005;-76
2023/01/26 04:41:30;;;;;;;0.70;0.43;;;15.40;71.90;;;;;;6213023;23;20001;-75
2023/01/26 04:43:56;;;;;;;1.00;0.40;;;15.40;72.00;;;;;;6214308;23;19996;-75
2023/01/26 04:46:21;;;;;;;0.75;0.45;;;15.30;71.90;;;;;;6213077;23;20001;-75
2023/01/26 04:48:47;;;;;;;0.40;0.40;;;15.30;72.00;;;;;;6214507;23;20341;-75
2023/01/26 04:51:14;;;;;;;0.45;0.40;;;15.30;72.00;;;;;;6214212;23;20335;-76
2023/01/26 04:53:40;;;;;;;0.40;0.40;;;15.30;72.10;;;;;;6188025;23;20004;-76
2023/01/26 04:56:07;;;;;;;0.82;0.32;;;15.30;72.20;;;;;;6188088;23;20076;-76
2023/01/26 04:58:33;;;;;;;0.40;0.40;;;15.30;72.10;;;;;;6212784;23;20076;-76
2023/01/26 05:00:59;;;;;;;0.40;0.28;;;15.20;72.10;;;;;;6187946;23;20028;-75
2023/01/26 05:03:25;;;;;;;0.30;0.30;;;15.30;72.40;;;;;;6214329;23;20345;-75
2023/01/26 05:05:51;;;;;;;0.50;0.40;;;15.20;72.20;;;;;;6212426;23;20054;-76
2023/01/26 05:08:17;;;;;;;0.40;0.40;;;15.20;72.50;;;;;;6212969;23;20023;-76
2023/01/26 05:10:43;;;;;;;0.65;0.40;;;15.20;72.30;;;;;;6214279;23;20449;-75
2023/01/26 05:13:08;;;;;;;0.40;0.40;;;15.20;72.30;;;;;;6212867;23;20028;-75
2023/01/26 05:15:34;;;;;;;0.63;0.50;;;15.20;72.50;;;;;;6212845;23;20005;-75
2023/01/26 05:18:00;;;;;;;0.40;0.40;;;15.20;72.40;;;;;;6212685;23;20039;-75
2023/01/26 05:20:25;;;;;;;0.85;0.52;;;15.20;72.50;;;;;;6213518;23;20005;-75
2023/01/26 05:22:51;;;;;;;1.35;0.40;;;15.20;72.60;;;;;;6214800;23;20057;-76
2023/01/26 05:25:17;;;;;;;0.30;0.30;;;15.10;72.60;;;;;;6189620;23;20020;-76
2023/01/26 05:27:43;;;;;;;0.65;0.40;;;15.20;72.70;;;;;;6214661;23;20437;-75
2023/01/26 05:30:09;;;;;;;0.30;0.30;;;15.10;72.70;;;;;;6216212;23;20468;-76
2023/01/26 05:32:35;;;;;;;0.77;0.40;;;15.10;72.90;;;;;;6214567;23;20441;-75
2023/01/26 05:35:01;;;;;;;0.40;0.30;;;15.10;72.60;;;;;;6214093;23;20396;-75
2023/01/26 05:37:27;;;;;;;1.38;0.50;;;15.10;72.90;;;;;;6216137;23;20001;-75
2023/01/26 05:39:53;;;;;;;0.47;0.45;;;15.10;72.70;;;;;;6189453;23;20028;-75
2023/01/26 05:42:18;;;;;;;0.30;0.30;;;15.10;73.00;;;;;;6216030;23;20001;-76
2023/01/26 05:44:44;;;;;;;0.43;0.43;;;15.10;72.80;;;;;;6189383;23;20000;-75
2023/01/26 05:47:10;;;;;;;0.47;0.40;;;15.10;72.90;;;;;;6216069;23;20024;-75
2023/01/26 05:49:41;;;;;;;0.50;0.40;;;15.10;72.90;;;;;;6189351;23;20462;-76
2023/01/26 05:52:11;;;;;;;0.43;0.38;;;15.10;72.90;;;;;;6214602;23;20391;-75
2023/01/26 05:54:36;;;;;;;0.40;0.30;;;15.10;73.00;;;;;;6214294;23;20001;-75
2023/01/26 05:57:02;;;;;;;0.40;0.40;;;15.00;73.00;;;;;;6216106;23;20000;-75
2023/01/26 05:59:28;;;;;;;0.70;0.40;;;15.00;72.90;;;;;;6215984;23;20043;-76
2023/01/26 06:01:55;;;;;;;0.20;0.20;;;15.10;73.10;;;;;;6215600;23;20028;-75
2023/01/26 06:04:21;;;;;;;0.75;0.43;;;15.00;73.10;;;;;;6188337;23;20077;-75
2023/01/26 06:06:46;;;;;;;0.75;0.35;;;15.10;73.20;;;;;;6216179;23;20051;-76
2023/01/26 06:09:12;;;;;;;0.68;0.40;;;15.00;73.40;;;;;;6216113;23;20005;-75
2023/01/26 06:11:38;;;;;;;0.73;0.30;;;15.00;73.20;;;;;;6216259;23;20464;-75
2023/01/26 06:14:03;;;;;;;0.70;0.50;;;15.00;73.20;;;;;;6214614;23;20004;-75
2023/01/26 06:16:29;;;;;;;0.40;0.32;;;15.00;73.50;;;;;;6215817;23;20000;-75
2023/01/26 06:18:54;;;;;;;0.60;0.45;;;15.00;73.40;;;;;;6215983;23;20467;-76
2023/01/26 06:21:20;;;;;;;0.47;0.30;;;15.00;73.30;;;;;;6189358;23;20036;-75
2023/01/26 06:23:46;;;;;;;0.45;0.45;;;15.00;73.40;;;;;;6214387;23;20004;-76
2023/01/26 06:26:11;;;;;;;0.40;0.40;;;15.00;73.50;;;;;;6216080;23;20012;-76
2023/01/26 06:28:37;;;;;;;0.55;0.50;;;15.00;73.50;;;;;;6214663;23;20406;-75
2023/01/26 06:31:03;;;;;;;0.70;0.32;;;15.00;73.50;;;;;;6214034;23;20072;-75
2023/01/26 06:33:31;;;;;;;0.95;0.47;;;14.90;73.50;;;;;;6189814;23;20495;-75
2023/01/26 06:36:03;;;;;;;1.90;0.45;;;14.90;73.70;;;;;;6213346;23;20008;-74
2023/01/26 06:38:29;;;;;;;2.72;0.30;;;14.90;73.00;;;;;;6214173;23;20005;-74
2023/01/26 06:40:57;;;;;;;0.80;0.60;;;14.90;72.70;;;;;;6213810;23;20011;-74
2023/01/26 06:43:23;;;;;;;3.13;0.52;;;14.90;72.30;;;;;;6189854;23;20005;-74
2023/01/26 06:45:49;;;;;;;1.23;0.50;;;14.90;72.10;;;;;;6213537;23;20086;-75
2023/01/26 06:48:14;;;;;;;1.02;0.57;;;14.90;71.70;;;;;;6215640;23;20003;-75
2023/01/26 06:50:40;;;;;;;12.82;0.70;;;14.90;71.60;;;;;;6215458;23;20054;-74
2023/01/26 06:53:29;;;;;;;1.25;0.47;;;14.90;71.60;;;;;;6215583;23;20453;-76
2023/01/26 06:55:55;;;;;;;1.75;0.60;;;14.80;71.40;;;;;;6190203;23;20001;-75
2023/01/26 06:58:20;;;;;;;1.65;0.65;;;14.80;71.40;;;;;;6215442;23;20000;-75
2023/01/26 07:00:46;;;;;;;0.52;0.30;;;14.80;71.40;;;;;;6214969;23;20005;-75
2023/01/26 07:03:12;;;;;;;0.93;0.50;;;14.80;71.30;;;;;;6213663;23;20000;-75
2023/01/26 07:05:37;;;;;;;1.48;0.55;;;14.80;71.30;;;;;;6215236;23;20000;-75
2023/01/26 07:08:05;;;;;;;1.15;0.60;;;14.80;71.40;;;;;;6215366;23;20000;-75
2023/01/26 07:10:31;;;;;;;1.60;0.60;;;14.80;71.40;;;;;;6215325;23;20001;-75
2023/01/26 07:12:56;;;;;;;0.82;0.50;;;14.80;71.40;;;;;;6213699;23;20008;-75
2023/01/26 07:15:22;;;;;;;1.30;0.57;;;14.80;71.50;;;;;;6214900;23;20055;-74
2023/01/26 07:17:47;;;;;;;13.13;2.30;;;14.80;71.50;;;;;;6215082;23;20001;-67
2023/01/26 07:20:13;;;;;;;13.77;2.20;;;14.80;71.70;;;;;;6213417;23;20000;-67
2023/01/26 07:22:39;;;;;;;11.93;2.50;;;14.80;72.00;;;;;;6213198;23;20004;-67
2023/01/26 07:25:05;;;;;;;10.05;1.98;;;14.80;71.90;;;;;;6212060;23;20342;-67
2023/01/26 07:27:30;;;;;;;6.00;2.00;;;14.80;71.90;;;;;;6211602;23;20001;-67
2023/01/26 07:29:56;;;;;;;13.50;2.38;;;14.70;71.90;;;;;;6211403;23;20346;-67
2023/01/26 07:32:22;;;;;;;9.80;1.73;;;14.80;71.80;;;;;;6209996;23;20099;-67
2023/01/26 07:34:47;;;;;;;7.00;2.00;;;14.80;71.90;;;;;;6211654;23;20651;-67
2023/01/26 07:37:13;;;;;;;11.00;2.17;;;14.70;71.80;;;;;;6212874;23;20027;-67
2023/01/26 07:39:39;;;;;;;6.97;1.75;;;14.70;71.80;;;;;;6211301;23;20005;-67
2023/01/26 07:42:05;;;;;;;7.55;1.95;;;14.80;71.80;;;;;;6213044;23;20003;-67
2023/01/26 07:44:30;;;;;;;6.68;1.58;;;14.70;71.70;;;;;;6214035;23;20003;-67
2023/01/26 07:46:56;;;;;;;7.45;1.80;;;14.70;71.70;;;;;;6214873;23;20001;-67
2023/01/26 07:49:22;;;;;;;6.95;1.95;;;14.70;71.70;;;;;;6213031;23;20684;-67
2023/01/26 07:51:48;;;;;;;8.20;2.20;;;14.70;71.70;;;;;;6214737;23;20001;-67
2023/01/26 07:54:13;;;;;;;5.65;1.75;;;14.70;71.70;;;;;;6213361;23;20404;-67
2023/01/26 07:56:39;;;;;;;13.98;2.22;;;14.70;71.70;;;;;;6214788;23;20054;-67
2023/01/26 07:59:04;;;;;;;7.25;1.92;;;14.60;71.70;;;;;;6214285;23;20051;-67
2023/01/26 08:01:30;;;;;;;7.05;1.73;;;14.70;71.70;;;;;;6214671;23;20051;-67
2023/01/26 08:03:56;;;;;;;6.63;2.10;;;14.70;71.60;;;;;;6214572;23;20504;-67
2023/01/26 08:06:23;;;;;;;5.38;1.58;;;14.60;71.60;;;;;;6213080;23;20433;-67
2023/01/26 08:08:50;;;;;;;5.65;1.63;;;14.60;71.60;;;;;;6214697;23;20007;-67
2023/01/26 08:11:16;;;;;;;5.88;1.38;;;14.60;71.60;;;;;;6214652;23;20468;-67
2023/01/26 08:13:41;;;;;;;8.02;1.50;;;14.60;71.50;;;;;;6212767;23;20000;-67
2023/01/26 08:16:10;;;;;;;6.50;1.60;;;14.60;71.70;;;;;;6214482;23;20000;-67
2023/01/26 08:18:42;;;;;;;7.70;2.33;;;14.60;71.60;;;;;;6188985;23;20007;-67
2023/01/26 08:21:08;;;;;;;6.03;1.50;;;14.50;71.60;;;;;;6213033;23;20036;-67
2023/01/26 08:23:34;;;;;;;5.55;1.55;;;14.50;71.60;;;;;;6188552;23;19997;-67
2023/01/26 08:26:04;;;;;;;5.65;1.90;;;14.60;71.60;;;;;;6212764;23;20024;-67
2023/01/26 08:28:30;;;;;;;9.40;2.10;;;14.60;71.60;;;;;;6188044;23;20096;-67
2023/01/26 08:30:56;;;;;;;3.88;1.70;;;14.50;71.60;;;;;;6214384;23;20032;-67
2023/01/26 08:33:22;;;;;;;6.63;2.10;;;14.50;71.60;;;;;;6214508;23;20008;-67
2023/01/26 08:35:48;;;;;;;7.15;1.58;;;14.50;71.60;;;;;;6214458;23;20016;-67
2023/01/26 08:38:13;;;;;;;3.45;1.40;;;14.50;71.70;;;;;;6214421;23;20004;-67
2023/01/26 08:40:39;;;;;;;3.38;1.60;;;14.50;71.70;;;;;;6212956;23;20373;-67
2023/01/26 08:43:05;;;;;;;4.53;1.63;;;14.50;71.70;;;;;;6213950;23;19996;-67
2023/01/26 08:45:30;;;;;;;8.27;1.67;;;14.50;71.50;;;;;;6214624;23;20001;-67
2023/01/26 08:47:56;;;;;;;3.58;1.52;;;14.40;71.60;;;;;;6212740;23;20004;-67
2023/01/26 08:50:22;;;;;;;6.93;1.60;;;14.50;71.70;;;;;;6213073;23;20001;-67
2023/01/26 08:52:48;;;;;;;3.90;1.38;;;14.50;71.70;;;;;;6214572;23;20409;-67
2023/01/26 08:55:14;;;;;;;5.43;1.92;;;14.40;71.60;;;;;;6215265;23;20000;-67
2023/01/26 08:57:40;;;;;;;7.13;1.67;;;14.40;71.60;;;;;;6189553;23;20000;-67
2023/01/26 09:00:06;;;;;;;3.92;1.88;;;14.40;71.60;;;;;;6216266;23;20008;-67
2023/01/26 09:02:32;;;;;;;4.18;1.50;;;14.40;71.60;;;;;;6214914;23;20004;-67
2023/01/26 09:04:58;;;;;;;4.72;1.55;;;14.40;71.70;;;;;;6214769;23;20341;-67
2023/01/26 09:07:23;;;;;;;4.60;1.65;;;14.40;71.60;;;;;;6216377;23;20459;-67
2023/01/26 09:09:49;;;;;;;2.70;1.30;;;14.40;71.60;;;;;;6214844;23;20091;-67
2023/01/26 09:12:14;;;;;;;4.22;1.70;;;14.30;71.50;;;;;;6215918;23;20132;-67
2023/01/26 09:14:40;;;;;;;4.43;1.30;;;14.30;71.50;;;;;;6216340;23;20028;-67
2023/01/26 09:17:06;;;;;;;3.33;1.40;;;14.30;71.60;;;;;;6216129;23;20008;-67
2023/01/26 09:19:32;;;;;;;3.63;1.08;;;14.40;71.60;;;;;;6215011;23;20012;-67
2023/01/26 09:21:57;;;;;;;5.07;1.48;;;14.30;71.50;;;;;;6216005;23;20043;-67
2023/01/26 09:24:23;;;;;;;2.75;1.30;;;14.30;71.60;;;;;;6214489;23;20082;-67
2023/01/26 09:26:49;;;;;;;3.15;1.30;;;14.30;71.60;;;;;;6216008;23;20000;-67
2023/01/26 09:29:15;;;;;;;4.65;1.42;;;14.30;71.50;;;;;;6216099;23;20097;-67
2023/01/26 09:31:40;;;;;;;3.70;1.38;;;14.30;71.50;;;;;;6214762;23;20475;-67
2023/01/26 09:34:06;;;;;;;3.35;1.50;;;14.30;71.50;;;;;;6215992;23;19997;-67
2023/01/26 09:36:32;;;;;;;2.33;1.10;;;14.30;71.60;;;;;;6214697;23;19996;-67
2023/01/26 09:38:58;;;;;;;2.10;1.20;;;14.30;71.50;;;;;;6214613;23;20344;-67
2023/01/26 09:41:46;;;;;;;3.50;1.42;;;14.30;71.50;;;;;;6214260;23;20004;-67
2023/01/26 09:44:18;;;;;;;3.15;1.50;;;14.30;71.50;;;;;;6214414;23;20004;-67
2023/01/26 09:47:11;;;;;;;3.88;1.25;;;14.30;71.60;;;;;;6190268;23;20000;-67
2023/01/26 09:49:53;;;;;;;1.90;1.00;;;14.30;71.50;;;;;;6215877;23;20001;-67
2023/01/26 09:52:54;;;;;;;4.30;1.30;;;14.30;71.50;;;;;;6214486;23;20000;-67
2023/01/26 09:55:20;;;;;;;4.35;1.30;;;14.20;71.50;;;;;;6094322;23;20010;-67
2023/01/26 09:57:51;;;;;;;2.72;1.50;;;14.20;71.60;;;;;;6070820;23;20450;-67
2023/01/26 10:00:26;;;;;;;3.70;1.33;;;14.20;71.60;;;;;;6047252;23;20119;-67
2023/01/26 10:03:05;;;;;;;2.03;1.15;;;14.20;71.50;;;;;;6094883;23;20003;-67
2023/01/26 10:05:51;;;;;;;3.42;1.40;;;14.20;71.60;;;;;;6071805;23;20078;-67
2023/01/26 10:08:18;;;;;;;3.00;1.55;;;14.20;71.60;;;;;;6070341;23;20503;-67
2023/01/26 10:10:48;;;;;;;3.30;1.20;;;14.20;71.60;;;;;;6094496;23;20010;-67
2023/01/26 10:13:14;;;;;;;2.15;1.10;;;14.20;71.60;;;;;;6071371;23;20510;-67
2023/01/26 10:15:46;;;;;;;2.75;1.15;;;14.20;71.60;;;;;;6070785;23;20010;-67
2023/01/26 10:18:24;;;;;;;4.93;1.05;;;14.20;71.70;;;;;;6071125;23;20006;-67
2023/01/26 10:20:52;;;;;;;2.47;1.10;;;14.20;71.60;;;;;;6094509;23;20006;-67
2023/01/26 10:23:22;;;;;;;2.95;1.42;;;14.20;71.60;;;;;;6070512;23;20011;-67
2023/01/26 10:25:47;;;;;;;1.55;1.10;;;14.10;71.50;;;;;;6070511;23;20046;-67
2023/01/26 10:28:14;;;;;;;3.08;1.15;;;14.10;71.60;;;;;;6070556;23;20487;-67
2023/01/26 10:30:41;;;;;;;2.97;1.20;;;14.10;71.60;;;;;;6125064;23;20005;-67
2023/01/26 10:33:31;;;;;;;2.60;1.23;;;14.10;71.60;;;;;;6189002;23;20059;-67
2023/01/26 10:35:57;;;;;;;1.48;1.02;;;14.10;71.60;;;;;;6191430;23;20071;-67
2023/01/26 10:38:31;;;;;;;4.05;1.15;;;14.10;71.80;;;;;;6215180;23;20377;-67
2023/01/26 10:41:00;;;;;;;1.58;0.80;;;14.10;71.70;;;;;;6215430;23;20004;-67
2023/01/26 10:43:26;;;;;;;2.97;1.20;;;14.10;71.70;;;;;;6214441;23;20023;-67
2023/01/26 10:45:51;;;;;;;1.55;0.98;;;14.10;71.60;;;;;;6188865;23;20329;-67
2023/01/26 10:48:25;;;;;;;1.85;1.10;;;14.10;71.70;;;;;;6215375;23;20004;-67
2023/01/26 10:50:51;;;;;;;2.10;1.00;;;14.10;71.70;;;;;;6189960;23;20004;-67
2023/01/26 10:53:25;;;;;;;0.80;0.77;;;14.10;71.70;;;;;;6213647;23;20008;-67
2023/01/26 10:55:58;;;;;;;1.92;0.93;;;14.00;71.70;;;;;;6213875;23;20007;-67
2023/01/26 10:58:47;;;;;;;2.28;1.27;;;14.00;71.70;;;;;;6189228;23;20004;-67
2023/01/26 11:01:14;;;;;;;2.13;0.98;;;14.00;72.20;;;;;;6213705;23;20103;-67
2023/01/26 11:03:40;;;;;;;1.55;1.00;;;14.00;71.70;;;;;;6189174;23;19997;-67
2023/01/26 11:06:14;;;;;;;3.38;1.00;;;14.00;71.70;;;;;;6188856;23;20075;-67
2023/01/26 11:08:39;;;;;;;2.35;1.00;;;14.00;71.70;;;;;;6213611;23;20071;-67
2023/01/26 11:11:10;;;;;;;2.47;1.10;;;14.00;71.70;;;;;;6213672;23;20020;-67
2023/01/26 11:13:36;;;;;;;2.22;0.88;;;14.00;71.70;;;;;;6213991;23;20007;-67
2023/01/26 11:16:18;;;;;;;3.05;0.88;;;14.00;71.70;;;;;;6213729;23;20005;-67
2023/01/26 11:19:06;;;;;;;1.35;0.82;;;14.00;71.80;;;;;;6189232;23;20004;-67
2023/01/26 11:22:05;;;;;;;3.15;1.10;;;14.00;71.70;;;;;;6189162;23;20058;-67
2023/01/26 11:24:40;;;;;;;2.45;0.80;;;14.00;71.80;;;;;;6188086;23;20012;-67
2023/01/26 11:27:26;;;;;;;1.80;0.90;;;14.00;71.80;;;;;;6213648;23;20087;-67
2023/01/26 11:29:55;;;;;;;2.08;0.88;;;14.00;71.80;;;;;;6213737;23;20333;-67
2023/01/26 11:32:42;;;;;;;0.98;0.82;;;14.00;71.80;;;;;;6214804;23;20007;-67
2023/01/26 11:35:24;;;;;;;2.28;0.73;;;14.00;71.70;;;;;;6214695;23;20346;-67
2023/01/26 11:38:00;;;;;;;2.00;1.02;;;14.00;71.70;;;;;;6214709;23;20076;-67
2023/01/26 11:40:50;;;;;;;1.02;0.80;;;13.90;71.70;;;;;;6213200;23;20001;-67
2023/01/26 11:43:46;;;;;;;2.20;0.82;;;13.90;71.70;;;;;;6213445;23;20319;-67
2023/01/26 11:46:20;;;;;;;0.90;0.80;;;13.90;71.80;;;;;;6214924;23;20001;-67
2023/01/26 11:48:46;;;;;;;1.55;0.70;;;13.90;71.70;;;;;;6215001;23;20429;-67
2023/01/26 11:51:33;;;;;;;2.13;0.77;;;13.90;71.80;;;;;;6214358;23;20000;-67
2023/01/26 11:54:03;;;;;;;2.63;1.00;;;13.90;71.70;;;;;;6214886;23;20004;-67
2023/01/26 11:56:50;;;;;;;2.00;0.88;;;13.90;71.70;;;;;;6213178;23;20011;-67
2023/01/26 11:59:44;;;;;;;1.45;0.70;;;13.90;71.70;;;;;;6212980;23;20032;-67
2023/01/26 12:02:32;;;;;;;0.88;0.60;;;13.90;71.80;;;;;;6198731;23;20009;-67
2023/01/26 12:05:04;;;;;;;1.13;0.60;;;13.90;71.80;;;;;;6213280;23;20001;-67
2023/01/26 12:07:50;;;;;;;;;;;13.90;71.80;;;;;;6213772;23;20055;-67
2023/01/26 12:10:16;;;;;;;1.13;0.88;;;13.90;71.80;;;;;;6213573;23;19900;-67
2023/01/26 12:12:51;;;;;;;1.67;0.82;;;13.90;71.80;;;;;;6188034;23;20032;-67
2023/01/26 12:15:26;;;;;;;1.33;0.60;;;13.90;71.80;;;;;;6188774;23;20107;-67
2023/01/26 12:17:59;;;;;;;2.38;1.00;;;13.90;71.80;;;;;;6190019;23;20031;-67
2023/01/26 12:20:39;;;;;;;2.15;0.70;;;13.90;71.80;;;;;;6212608;23;20502;-67
2023/01/26 12:23:09;;;;;;;1.15;0.60;;;13.90;71.80;;;;;;6214512;23;19997;-67
2023/01/26 12:25:37;;;;;;;1.85;0.60;;;13.90;71.80;;;;;;6212871;23;20012;-67
2023/01/26 12:28:24;;;;;;;1.88;0.52;;;13.80;71.80;;;;;;6214558;23;20503;-67
2023/01/26 12:31:13;;;;;;;1.73;0.70;;;13.90;71.80;;;;;;6213028;23;20009;-67
2023/01/26 12:33:38;;;;;;;2.80;0.60;;;13.80;71.80;;;;;;6212818;23;20031;-67
2023/01/26 12:36:15;;;;;;;1.00;0.70;;;13.80;71.80;;;;;;6213006;23;20028;-67
2023/01/26 12:39:07;;;;;;;1.73;0.88;;;13.80;71.80;;;;;;6188772;23;20058;-67
2023/01/26 12:41:54;;;;;;;1.50;0.75;;;13.80;71.80;;;;;;6214507;23;20005;-67
2023/01/26 12:44:34;;;;;;;1.15;0.73;;;13.80;71.80;;;;;;6214444;23;20009;-67
2023/01/26 12:47:31;;;;;;;1.13;0.50;;;13.80;71.80;;;;;;6213039;23;20027;-67
2023/01/26 12:50:11;;;;;;;1.65;0.88;;;13.80;71.80;;;;;;6214279;23;20001;-67
2023/01/26 12:52:42;;;;;;;2.22;1.00;;;13.80;71.80;;;;;;6212955;23;20311;-67
2023/01/26 12:55:23;;;;;;;2.63;0.82;;;13.80;71.90;;;;;;6188507;23;20009;-67
2023/01/26 12:57:55;;;;;;;2.17;0.90;;;13.80;71.80;;;;;;6188331;23;20036;-67
2023/01/26 13:00:29;;;;;;;0.57;0.50;;;13.80;71.80;;;;;;6212741;23;20004;-67
2023/01/26 13:03:03;;;;;;;1.05;0.60;;;13.80;71.80;;;;;;6212679;23;20353;-67
2023/01/26 13:05:33;;;;;;;1.80;0.77;;;13.80;71.80;;;;;;6188744;23;20021;-67
2023/01/26 13:08:37;;;;;;;0.50;0.40;;;13.80;71.80;;;;;;6212856;23;20001;-67
2023/01/26 13:11:05;;;;;;;1.45;0.47;;;13.80;71.80;;;;;;6214513;23;20000;-67
2023/01/26 13:13:50;;;;;;;1.20;0.70;;;13.80;71.90;;;;;;6188212;23;20008;-67
2023/01/26 13:16:16;;;;;;;2.58;0.70;;;13.80;71.90;;;;;;6214358;23;20011;-67
2023/01/26 13:18:48;;;;;;;0.55;0.38;;;13.80;71.90;;;;;;6213833;23;20005;-67
2023/01/26 13:21:45;;;;;;;0.65;0.60;;;13.80;71.80;;;;;;6212641;23;20314;-67
2023/01/26 13:24:17;;;;;;;1.65;0.80;;;13.80;71.80;;;;;;6212938;23;19997;-67
2023/01/26 13:26:44;;;;;;;1.92;0.80;;;13.80;71.90;;;;;;6214213;23;20016;-67
2023/01/26 13:29:26;;;;;;;0.68;0.50;;;13.70;71.80;;;;;;6212891;23;20070;-67
2023/01/26 13:31:56;;;;;;;0.57;0.50;;;13.70;71.80;;;;;;6214060;23;19997;-67
2023/01/26 13:34:42;;;;;;;1.10;0.63;;;13.80;71.90;;;;;;6187759;23;20025;-67
2023/01/26 13:37:20;;;;;;;1.85;0.70;;;13.70;71.80;;;;;;6188599;23;20075;-67
2023/01/26 13:39:50;;;;;;;1.20;0.80;;;13.70;71.80;;;;;;6212800;23;20076;-67
2023/01/26 13:42:24;;;;;;;0.88;0.57;;;13.70;71.90;;;;;;6214669;23;20055;-67
2023/01/26 13:45:22;;;;;;;1.48;0.70;;;13.70;71.90;;;;;;6190381;23;20146;-67